sensor_id;sensor_type;location;lat;lon;timestamp;pressure;altitude;pressure_sealevel;temperature;humidity
54900;BME280;40801;41.924;25.562;2022-11-21T00:00:18;98471.75;;;17.74;68.21
54900;BME280;40801;41.924;25.562;2022-11-21T00:02:43;98452.28;;;17.76;68.25
54900;BME280;40801;41.924;25.562;2022-11-21T00:05:09;98475.66;;;17.77;68.24
54900;BME280;40801;41.924;25.562;2022-11-21T00:07:34;98461.25;;;17.76;68.28
54900;BME280;40801;41.924;25.562;2022-11-21T00:10:00;98469.03;;;17.74;68.46
54900;BME280;40801;41.924;25.562;2022-11-21T00:12:25;98453.41;;;17.71;68.50
54900;BME280;40801;41.924;25.562;2022-11-21T00:14:50;98453.41;;;17.71;68.81
54900;BME280;40801;41.924;25.562;2022-11-21T00:17:16;98438.28;;;17.77;68.74
54900;BME280;40801;41.924;25.562;2022-11-21T00:19:41;98426.22;;;17.78;68.57
54900;BME280;40801;41.924;25.562;2022-11-21T00:22:07;98415.72;;;17.80;68.66
54900;BME280;40801;41.924;25.562;2022-11-21T00:24:32;98415.69;;;17.77;68.66
54900;BME280;40801;41.924;25.562;2022-11-21T00:26:57;98425.78;;;17.73;68.87
54900;BME280;40801;41.924;25.562;2022-11-21T00:29:23;98427.25;;;17.67;69.13
54900;BME280;40801;41.924;25.562;2022-11-21T00:31:48;98440.53;;;17.68;69.18
54900;BME280;40801;41.924;25.562;2022-11-21T00:34:14;98433.13;;;17.69;69.29
54900;BME280;40801;41.924;25.562;2022-11-21T00:36:41;98407.88;;;17.75;69.06
54900;BME280;40801;41.924;25.562;2022-11-21T00:39:06;98360.31;;;17.69;69.38
54900;BME280;40801;41.924;25.562;2022-11-21T00:41:32;98343.16;;;17.69;69.38
54900;BME280;40801;41.924;25.562;2022-11-21T00:43:57;98335.22;;;17.56;70.05
54900;BME280;40801;41.924;25.562;2022-11-21T00:46:22;98332.13;;;17.61;69.48
54900;BME280;40801;41.924;25.562;2022-11-21T00:48:48;98314.19;;;17.57;69.62
54900;BME280;40801;41.924;25.562;2022-11-21T00:51:13;98308.28;;;17.48;70.00
54900;BME280;40801;41.924;25.562;2022-11-21T00:53:39;98311.00;;;17.48;70.31
54900;BME280;40801;41.924;25.562;2022-11-21T00:56:04;98311.81;;;17.52;70.54
54900;BME280;40801;41.924;25.562;2022-11-21T00:58:30;98310.69;;;17.56;70.56
54900;BME280;40801;41.924;25.562;2022-11-21T01:01:06;98296.66;;;17.58;70.49
54900;BME280;40801;41.924;25.562;2022-11-21T01:03:33;98308.72;;;17.57;70.38
54900;BME280;40801;41.924;25.562;2022-11-21T01:06:04;98310.69;;;17.56;70.41
54900;BME280;40801;41.924;25.562;2022-11-21T01:08:30;98311.47;;;17.57;70.69
54900;BME280;40801;41.924;25.562;2022-11-21T01:10:56;98301.69;;;17.52;71.04
54900;BME280;40801;41.924;25.562;2022-11-21T01:13:21;98323.50;;;17.52;70.72
54900;BME280;40801;41.924;25.562;2022-11-21T01:15:47;98324.19;;;17.42;71.27
54900;BME280;40801;41.924;25.562;2022-11-21T01:18:12;98329.22;;;17.37;71.06
54900;BME280;40801;41.924;25.562;2022-11-21T01:20:40;98317.06;;;17.30;71.51
54900;BME280;40801;41.924;25.562;2022-11-21T01:23:06;98317.78;;;17.24;71.49
54900;BME280;40801;41.924;25.562;2022-11-21T01:25:35;98313.47;;;17.19;71.67
54900;BME280;40801;41.924;25.562;2022-11-21T01:28:00;98330.53;;;17.13;71.74
54900;BME280;40801;41.924;25.562;2022-11-21T01:30:26;98316.81;;;17.06;71.91
54900;BME280;40801;41.924;25.562;2022-11-21T01:32:51;98324.13;;;16.98;72.21
54900;BME280;40801;41.924;25.562;2022-11-21T01:35:18;98308.91;;;16.93;72.75
54900;BME280;40801;41.924;25.562;2022-11-21T01:37:47;98303.13;;;16.98;72.67
54900;BME280;40801;41.924;25.562;2022-11-21T01:40:12;98301.41;;;16.83;73.67
54900;BME280;40801;41.924;25.562;2022-11-21T01:43:00;98291.63;;;17.16;71.98
54900;BME280;40801;41.924;25.562;2022-11-21T01:45:50;98280.19;;;17.40;70.90
54900;BME280;40801;41.924;25.562;2022-11-21T01:48:17;98272.94;;;17.62;69.78
54900;BME280;40801;41.924;25.562;2022-11-21T01:50:43;98306.63;;;17.80;69.16
54900;BME280;40801;41.924;25.562;2022-11-21T01:53:09;98295.81;;;17.94;68.66
54900;BME280;40801;41.924;25.562;2022-11-21T01:55:35;98286.13;;;18.04;68.45
54900;BME280;40801;41.924;25.562;2022-11-21T01:58:01;98288.59;;;18.23;67.86
54900;BME280;40801;41.924;25.562;2022-11-21T02:00:29;98248.44;;;18.27;67.74
54900;BME280;40801;41.924;25.562;2022-11-21T02:02:58;98244.56;;;18.32;67.71
54900;BME280;40801;41.924;25.562;2022-11-21T02:05:31;98226.25;;;18.33;68.05
54900;BME280;40801;41.924;25.562;2022-11-21T02:08:05;98241.84;;;18.36;67.93
54900;BME280;40801;41.924;25.562;2022-11-21T02:10:34;98230.53;;;18.37;67.74
54900;BME280;40801;41.924;25.562;2022-11-21T02:13:01;98262.16;;;18.45;67.62
54900;BME280;40801;41.924;25.562;2022-11-21T02:15:28;98239.91;;;18.40;67.99
54900;BME280;40801;41.924;25.562;2022-11-21T02:17:54;98239.53;;;18.45;67.70
54900;BME280;40801;41.924;25.562;2022-11-21T02:20:22;98258.25;;;18.46;67.99
54900;BME280;40801;41.924;25.562;2022-11-21T02:23:52;98259.78;;;18.40;68.45
54900;BME280;40801;41.924;25.562;2022-11-21T02:25:52;98261.34;;;18.41;68.48
54900;BME280;40801;41.924;25.562;2022-11-21T02:28:20;98264.84;;;18.38;68.70
54900;BME280;40801;41.924;25.562;2022-11-21T02:30:47;98265.22;;;18.30;68.81
54900;BME280;40801;41.924;25.562;2022-11-21T02:33:13;98265.25;;;18.40;68.22
54900;BME280;40801;41.924;25.562;2022-11-21T02:35:39;98271.13;;;18.46;68.24
54900;BME280;40801;41.924;25.562;2022-11-21T02:38:20;98277.44;;;18.57;67.81
54900;BME280;40801;41.924;25.562;2022-11-21T02:41:10;98273.50;;;18.51;68.04
54900;BME280;40801;41.924;25.562;2022-11-21T02:43:43;98279.22;;;18.24;69.93
54900;BME280;40801;41.924;25.562;2022-11-21T02:46:11;98277.16;;;18.00;71.90
54900;BME280;40801;41.924;25.562;2022-11-21T02:48:37;98271.94;;;17.81;73.02
54900;BME280;40801;41.924;25.562;2022-11-21T02:51:03;98269.44;;;17.61;74.36
54900;BME280;40801;41.924;25.562;2022-11-21T02:53:29;98273.69;;;17.55;74.77
54900;BME280;40801;41.924;25.562;2022-11-21T02:55:54;98254.16;;;17.46;75.13
54900;BME280;40801;41.924;25.562;2022-11-21T02:58:20;98269.69;;;17.42;75.15
54900;BME280;40801;41.924;25.562;2022-11-21T03:00:45;98265.03;;;17.43;74.56
54900;BME280;40801;41.924;25.562;2022-11-21T03:03:11;98263.47;;;17.42;74.44
54900;BME280;40801;41.924;25.562;2022-11-21T03:05:37;98265.00;;;17.39;74.58
54900;BME280;40801;41.924;25.562;2022-11-21T03:08:03;98266.94;;;17.39;74.45
54900;BME280;40801;41.924;25.562;2022-11-21T03:10:29;98289.53;;;17.39;74.59
54900;BME280;40801;41.924;25.562;2022-11-21T03:12:54;98295.78;;;17.43;74.37
54900;BME280;40801;41.924;25.562;2022-11-21T03:15:25;98284.09;;;17.43;74.21
54900;BME280;40801;41.924;25.562;2022-11-21T03:17:52;98289.56;;;17.46;74.16
54900;BME280;40801;41.924;25.562;2022-11-21T03:20:17;98289.56;;;17.46;74.33
54900;BME280;40801;41.924;25.562;2022-11-21T03:22:43;98273.97;;;17.43;74.56
54900;BME280;40801;41.924;25.562;2022-11-21T03:25:08;98273.97;;;17.43;74.30
54900;BME280;40801;41.924;25.562;2022-11-21T03:27:33;98269.31;;;17.44;74.46
54900;BME280;40801;41.924;25.562;2022-11-21T03:29:59;98258.78;;;17.42;74.69
54900;BME280;40801;41.924;25.562;2022-11-21T03:32:24;98262.31;;;17.46;74.64
54900;BME280;40801;41.924;25.562;2022-11-21T03:34:49;98268.19;;;17.48;74.50
54900;BME280;40801;41.924;25.562;2022-11-21T03:37:15;98266.22;;;17.45;74.69
54900;BME280;40801;41.924;25.562;2022-11-21T03:39:41;98274.41;;;17.49;74.41
54900;BME280;40801;41.924;25.562;2022-11-21T03:42:06;98279.06;;;17.48;74.30
54900;BME280;40801;41.924;25.562;2022-11-21T03:44:32;98263.53;;;17.52;73.91
54900;BME280;40801;41.924;25.562;2022-11-21T03:46:57;98269.78;;;17.56;73.26
54900;BME280;40801;41.924;25.562;2022-11-21T03:49:23;98259.25;;;17.55;72.88
54900;BME280;40801;41.924;25.562;2022-11-21T03:51:48;98249.53;;;17.57;72.61
54900;BME280;40801;41.924;25.562;2022-11-21T03:54:13;98250.31;;;17.58;72.30
54900;BME280;40801;41.924;25.562;2022-11-21T03:56:39;98241.75;;;17.59;72.19
54900;BME280;40801;41.924;25.562;2022-11-21T03:59:05;98233.56;;;17.56;72.34
54900;BME280;40801;41.924;25.562;2022-11-21T04:01:30;98240.94;;;17.52;72.35
54900;BME280;40801;41.924;25.562;2022-11-21T04:03:57;98231.19;;;17.47;72.12
54900;BME280;40801;41.924;25.562;2022-11-21T04:06:22;98220.66;;;17.46;72.09
54900;BME280;40801;41.924;25.562;2022-11-21T04:08:48;98213.63;;;17.41;72.01
54900;BME280;40801;41.924;25.562;2022-11-21T04:11:14;98220.59;;;17.35;71.80
54900;BME280;40801;41.924;25.562;2022-11-21T04:13:40;98217.44;;;17.33;71.48
54900;BME280;40801;41.924;25.562;2022-11-21T04:16:05;98223.63;;;17.26;71.31
54900;BME280;40801;41.924;25.562;2022-11-21T04:18:33;98225.50;;;17.19;70.83
54900;BME280;40801;41.924;25.562;2022-11-21T04:21:00;98229.34;;;17.14;70.26
54900;BME280;40801;41.924;25.562;2022-11-21T04:23:26;98223.53;;;17.16;69.83
54900;BME280;40801;41.924;25.562;2022-11-21T04:25:52;98239.03;;;17.08;69.77
54900;BME280;40801;41.924;25.562;2022-11-21T04:28:18;98234.31;;;17.05;69.53
54900;BME280;40801;41.924;25.562;2022-11-21T04:30:43;98241.31;;;17.02;69.49
54900;BME280;40801;41.924;25.562;2022-11-21T04:33:10;98240.09;;;17.00;69.45
54900;BME280;40801;41.924;25.562;2022-11-21T04:35:36;98242.84;;;17.00;69.18
54900;BME280;40801;41.924;25.562;2022-11-21T04:38:01;98238.06;;;16.90;69.22
54900;BME280;40801;41.924;25.562;2022-11-21T04:40:27;98226.09;;;16.98;68.46
54900;BME280;40801;41.924;25.562;2022-11-21T04:42:52;98227.59;;;16.92;68.49
54900;BME280;40801;41.924;25.562;2022-11-21T04:45:18;98215.97;;;16.98;67.75
54900;BME280;40801;41.924;25.562;2022-11-21T04:47:45;98212.78;;;16.89;68.03
54900;BME280;40801;41.924;25.562;2022-11-21T04:50:13;98206.59;;;16.92;67.91
54900;BME280;40801;41.924;25.562;2022-11-21T04:52:39;98194.44;;;16.83;68.00
54900;BME280;40801;41.924;25.562;2022-11-21T04:55:05;98197.09;;;16.76;68.31
54900;BME280;40801;41.924;25.562;2022-11-21T04:57:31;98207.94;;;16.72;68.37
54900;BME280;40801;41.924;25.562;2022-11-21T04:59:56;98195.97;;;16.80;67.95
54900;BME280;40801;41.924;25.562;2022-11-21T05:02:22;98197.25;;;16.93;67.28
54900;BME280;40801;41.924;25.562;2022-11-21T05:04:48;98195.69;;;16.92;67.40
54900;BME280;40801;41.924;25.562;2022-11-21T05:07:14;98196.13;;;16.98;67.24
54900;BME280;40801;41.924;25.562;2022-11-21T05:09:39;98188.72;;;16.95;67.31
54900;BME280;40801;41.924;25.562;2022-11-21T05:12:05;98179.31;;;16.89;67.29
54900;BME280;40801;41.924;25.562;2022-11-21T05:14:49;98178.56;;;16.92;67.50
54900;BME280;40801;41.924;25.562;2022-11-21T05:17:16;98172.38;;;16.95;67.34
54900;BME280;40801;41.924;25.562;2022-11-21T05:19:41;98161.06;;;16.93;67.17
54900;BME280;40801;41.924;25.562;2022-11-21T05:22:07;98159.13;;;16.93;67.12
54900;BME280;40801;41.924;25.562;2022-11-21T05:24:32;98164.56;;;16.90;66.99
54900;BME280;40801;41.924;25.562;2022-11-21T05:26:57;98152.84;;;16.86;67.35
54900;BME280;40801;41.924;25.562;2022-11-21T05:29:23;98156.31;;;16.83;67.00
54900;BME280;40801;41.924;25.562;2022-11-21T05:31:48;98166.88;;;16.88;66.74
54900;BME280;40801;41.924;25.562;2022-11-21T05:34:14;98178.19;;;16.93;66.45
54900;BME280;40801;41.924;25.562;2022-11-21T05:36:39;98182.44;;;16.91;66.13
54900;BME280;40801;41.924;25.562;2022-11-21T05:39:05;98180.50;;;16.91;66.01
54900;BME280;40801;41.924;25.562;2022-11-21T05:41:30;98179.28;;;16.85;65.92
54900;BME280;40801;41.924;25.562;2022-11-21T05:43:56;98177.00;;;16.91;64.90
54900;BME280;40801;41.924;25.562;2022-11-21T05:46:23;98179.00;;;16.97;64.13
54900;BME280;40801;41.924;25.562;2022-11-21T05:48:50;98182.91;;;17.00;63.75
54900;BME280;40801;41.924;25.562;2022-11-21T05:51:16;98187.59;;;17.03;62.92
54900;BME280;40801;41.924;25.562;2022-11-21T05:53:42;98188.75;;;17.02;61.37
54900;BME280;40801;41.924;25.562;2022-11-21T05:56:18;98205.66;;;17.22;59.43
54900;BME280;40801;41.924;25.562;2022-11-21T05:58:44;98201.84;;;17.33;58.73
54900;BME280;40801;41.924;25.562;2022-11-21T06:01:11;98214.69;;;17.33;58.66
54900;BME280;40801;41.924;25.562;2022-11-21T06:03:40;98225.00;;;17.57;57.62
54900;BME280;40801;41.924;25.562;2022-11-21T06:08:33;98209.81;;;17.56;57.82
54900;BME280;40801;41.924;25.562;2022-11-21T06:10:59;98217.00;;;17.75;57.30
54900;BME280;40801;41.924;25.562;2022-11-21T06:13:25;98225.94;;;17.72;57.50
54900;BME280;40801;41.924;25.562;2022-11-21T06:16:14;98230.59;;;17.68;57.19
54900;BME280;40801;41.924;25.562;2022-11-21T06:18:43;98229.03;;;17.71;57.57
54900;BME280;40801;41.924;25.562;2022-11-21T06:21:12;98233.78;;;17.81;56.66
54900;BME280;40801;41.924;25.562;2022-11-21T06:23:38;98241.56;;;17.82;56.52
54900;BME280;40801;41.924;25.562;2022-11-21T06:26:05;98240.09;;;17.95;56.59
54900;BME280;40801;41.924;25.562;2022-11-21T06:28:36;98239.34;;;18.02;56.22
54900;BME280;40801;41.924;25.562;2022-11-21T06:31:07;98238.19;;;18.07;55.71
54900;BME280;40801;41.924;25.562;2022-11-21T06:33:33;98248.78;;;18.19;55.73
54900;BME280;40801;41.924;25.562;2022-11-21T06:36:03;98272.94;;;18.20;55.95
54900;BME280;40801;41.924;25.562;2022-11-21T06:38:29;98250.44;;;18.38;55.53
54900;BME280;40801;41.924;25.562;2022-11-21T06:40:55;98242.25;;;18.45;55.67
54900;BME280;40801;41.924;25.562;2022-11-21T06:43:20;98261.09;;;18.68;54.51
54900;BME280;40801;41.924;25.562;2022-11-21T06:45:45;98265.72;;;18.60;54.64
54900;BME280;40801;41.924;25.562;2022-11-21T06:48:11;98270.94;;;18.97;53.83
54900;BME280;40801;41.924;25.562;2022-11-21T06:50:36;98265.16;;;19.70;52.98
54900;BME280;40801;41.924;25.562;2022-11-21T06:53:03;98268.16;;;20.29;51.84
54900;BME280;40801;41.924;25.562;2022-11-21T06:55:30;98266.38;;;20.78;50.34
54900;BME280;40801;41.924;25.562;2022-11-21T06:57:59;98265.09;;;21.55;49.55
54900;BME280;40801;41.924;25.562;2022-11-21T07:00:26;98267.84;;;22.00;46.54
54900;BME280;40801;41.924;25.562;2022-11-21T07:02:53;98268.16;;;22.43;46.07
54900;BME280;40801;41.924;25.562;2022-11-21T07:05:18;98264.75;;;22.97;45.08
54900;BME280;40801;41.924;25.562;2022-11-21T07:07:44;98273.91;;;23.40;42.73
54900;BME280;40801;41.924;25.562;2022-11-21T07:10:09;98275.38;;;23.48;42.32
54900;BME280;40801;41.924;25.562;2022-11-21T07:12:34;98277.19;;;23.32;43.23
54900;BME280;40801;41.924;25.562;2022-11-21T07:15:18;98280.59;;;23.39;42.24
54900;BME280;40801;41.924;25.562;2022-11-21T07:17:44;98286.03;;;23.70;41.09
54900;BME280;40801;41.924;25.562;2022-11-21T07:20:10;98286.28;;;23.79;40.57
54900;BME280;40801;41.924;25.562;2022-11-21T07:22:35;98288.59;;;24.04;40.71
54900;BME280;40801;41.924;25.562;2022-11-21T07:25:01;98281.47;;;24.26;40.43
54900;BME280;40801;41.924;25.562;2022-11-21T07:27:26;98272.00;;;24.31;40.13
54900;BME280;40801;41.924;25.562;2022-11-21T07:29:52;98275.38;;;24.58;38.41
54900;BME280;40801;41.924;25.562;2022-11-21T07:32:17;98270.22;;;24.40;39.36
54900;BME280;40801;41.924;25.562;2022-11-21T07:34:43;98248.59;;;24.59;37.93
54900;BME280;40801;41.924;25.562;2022-11-21T07:37:08;98252.94;;;24.76;37.76
54900;BME280;40801;41.924;25.562;2022-11-21T07:39:34;98255.34;;;24.74;37.74
54900;BME280;40801;41.924;25.562;2022-11-21T07:42:00;98230.72;;;24.83;37.97
54900;BME280;40801;41.924;25.562;2022-11-21T07:44:25;98232.66;;;24.66;38.25
54900;BME280;40801;41.924;25.562;2022-11-21T07:46:54;98231.19;;;24.98;36.69
54900;BME280;40801;41.924;25.562;2022-11-21T07:49:20;98257.03;;;24.88;37.00
54900;BME280;40801;41.924;25.562;2022-11-21T07:51:45;98237.53;;;25.47;35.75
54900;BME280;40801;41.924;25.562;2022-11-21T07:54:11;98231.72;;;25.42;36.12
54900;BME280;40801;41.924;25.562;2022-11-21T07:56:36;98253.38;;;25.59;34.74
54900;BME280;40801;41.924;25.562;2022-11-21T07:59:01;98220.44;;;25.69;34.67
54900;BME280;40801;41.924;25.562;2022-11-21T08:01:27;98222.47;;;25.64;35.30
54900;BME280;40801;41.924;25.562;2022-11-21T08:03:52;98209.66;;;26.03;33.98
54900;BME280;40801;41.924;25.562;2022-11-21T08:06:17;98208.81;;;26.19;34.36
54900;BME280;40801;41.924;25.562;2022-11-21T08:08:43;98218.84;;;26.42;33.25
54900;BME280;40801;41.924;25.562;2022-11-21T08:11:08;98228.59;;;26.46;33.23
54900;BME280;40801;41.924;25.562;2022-11-21T08:13:34;98250.97;;;26.65;32.92
54900;BME280;40801;41.924;25.562;2022-11-21T08:16:02;98246.44;;;26.71;32.73
54900;BME280;40801;41.924;25.562;2022-11-21T08:18:28;98253.69;;;26.52;33.13
54900;BME280;40801;41.924;25.562;2022-11-21T08:20:53;98243.50;;;27.03;32.48
54900;BME280;40801;41.924;25.562;2022-11-21T08:23:19;98234.41;;;27.15;32.64
54900;BME280;40801;41.924;25.562;2022-11-21T08:25:44;98268.03;;;26.76;33.09
54900;BME280;40801;41.924;25.562;2022-11-21T08:28:11;98265.66;;;27.29;31.42
54900;BME280;40801;41.924;25.562;2022-11-21T08:30:37;98280.91;;;27.59;31.79
54900;BME280;40801;41.924;25.562;2022-11-21T08:33:03;98290.34;;;27.49;31.64
54900;BME280;40801;41.924;25.562;2022-11-21T08:35:29;98294.41;;;27.69;31.65
54900;BME280;40801;41.924;25.562;2022-11-21T08:37:55;98293.75;;;28.13;31.01
54900;BME280;40801;41.924;25.562;2022-11-21T08:40:22;98295.72;;;28.25;30.23
54900;BME280;40801;41.924;25.562;2022-11-21T08:42:47;98287.59;;;27.96;30.75
54900;BME280;40801;41.924;25.562;2022-11-21T08:45:19;98283.41;;;28.48;30.85
54900;BME280;40801;41.924;25.562;2022-11-21T08:47:45;98279.31;;;28.83;30.53
54900;BME280;40801;41.924;25.562;2022-11-21T08:50:10;98284.13;;;29.54;28.39
54900;BME280;40801;41.924;25.562;2022-11-21T08:52:35;98279.97;;;29.68;28.73
54900;BME280;40801;41.924;25.562;2022-11-21T08:55:01;98281.59;;;30.05;27.45
54900;BME280;40801;41.924;25.562;2022-11-21T08:57:26;98280.16;;;29.91;28.24
54900;BME280;40801;41.924;25.562;2022-11-21T08:59:52;98279.22;;;29.76;27.82
54900;BME280;40801;41.924;25.562;2022-11-21T09:02:17;98278.63;;;30.00;27.29
54900;BME280;40801;41.924;25.562;2022-11-21T09:04:42;98273.41;;;30.20;27.29
54900;BME280;40801;41.924;25.562;2022-11-21T09:07:08;98270.78;;;30.26;27.50
54900;BME280;40801;41.924;25.562;2022-11-21T09:09:33;98270.31;;;30.27;26.98
54900;BME280;40801;41.924;25.562;2022-11-21T09:12:00;98276.16;;;30.47;27.03
54900;BME280;40801;41.924;25.562;2022-11-21T09:14:25;98265.22;;;30.16;26.64
54900;BME280;40801;41.924;25.562;2022-11-21T09:17:13;98262.09;;;30.60;26.06
54900;BME280;40801;41.924;25.562;2022-11-21T09:19:57;98269.38;;;30.48;26.51
54900;BME280;40801;41.924;25.562;2022-11-21T09:22:23;98263.81;;;29.35;26.87
54900;BME280;40801;41.924;25.562;2022-11-21T09:24:50;98273.34;;;28.41;28.59
54900;BME280;40801;41.924;25.562;2022-11-21T09:27:15;98283.91;;;27.52;29.70
54900;BME280;40801;41.924;25.562;2022-11-21T09:29:41;98281.59;;;26.58;30.80
54900;BME280;40801;41.924;25.562;2022-11-21T09:32:06;98289.81;;;25.87;31.69
54900;BME280;40801;41.924;25.562;2022-11-21T09:34:31;98283.03;;;25.07;32.87
54900;BME280;40801;41.924;25.562;2022-11-21T09:36:57;98270.50;;;24.46;33.55
54900;BME280;40801;41.924;25.562;2022-11-21T09:39:22;98269.25;;;24.31;34.59
54900;BME280;40801;41.924;25.562;2022-11-21T09:44:41;98274.00;;;23.84;35.22
54900;BME280;40801;41.924;25.562;2022-11-21T09:47:19;98272.09;;;23.57;35.76
54900;BME280;40801;41.924;25.562;2022-11-21T09:49:50;98257.88;;;23.35;36.10
54900;BME280;40801;41.924;25.562;2022-11-21T09:52:19;98275.56;;;23.34;36.41
54900;BME280;40801;41.924;25.562;2022-11-21T09:54:49;98264.50;;;23.14;36.42
54900;BME280;40801;41.924;25.562;2022-11-21T09:57:20;98264.69;;;23.00;36.10
54900;BME280;40801;41.924;25.562;2022-11-21T09:59:48;98269.63;;;22.85;36.96
54900;BME280;40801;41.924;25.562;2022-11-21T10:02:16;98252.97;;;22.66;37.60
54900;BME280;40801;41.924;25.562;2022-11-21T10:04:44;98260.75;;;22.71;37.43
54900;BME280;40801;41.924;25.562;2022-11-21T10:07:26;98254.63;;;22.60;36.88
54900;BME280;40801;41.924;25.562;2022-11-21T10:10:11;98252.16;;;22.69;36.83
54900;BME280;40801;41.924;25.562;2022-11-21T10:13:22;98258.88;;;22.64;37.20
54900;BME280;40801;41.924;25.562;2022-11-21T10:16:19;98262.94;;;22.52;37.75
54900;BME280;40801;41.924;25.562;2022-11-21T10:25:11;98259.75;;;22.58;37.33
54900;BME280;40801;41.924;25.562;2022-11-21T10:27:30;98244.22;;;22.44;37.90
54900;BME280;40801;41.924;25.562;2022-11-21T10:30:12;98255.53;;;22.49;37.36
54900;BME280;40801;41.924;25.562;2022-11-21T10:32:42;98241.56;;;22.37;37.86
54900;BME280;40801;41.924;25.562;2022-11-21T10:35:37;98231.16;;;22.51;37.51
54900;BME280;40801;41.924;25.562;2022-11-21T10:38:25;98233.84;;;22.55;37.82
54900;BME280;40801;41.924;25.562;2022-11-21T10:41:05;98228.66;;;22.64;37.20
54900;BME280;40801;41.924;25.562;2022-11-21T10:43:40;98229.44;;;22.65;37.37
54900;BME280;40801;41.924;25.562;2022-11-21T10:46:25;98229.69;;;22.74;37.30
54900;BME280;40801;41.924;25.562;2022-11-21T10:48:56;98228.50;;;22.75;37.39
54900;BME280;40801;41.924;25.562;2022-11-21T10:52:24;98218.22;;;22.79;37.13
54900;BME280;40801;41.924;25.562;2022-11-21T10:54:30;98220.56;;;22.80;36.78
54900;BME280;40801;41.924;25.562;2022-11-21T10:57:13;98229.06;;;22.93;36.51
54900;BME280;40801;41.924;25.562;2022-11-21T10:59:40;98225.84;;;22.98;36.10
54900;BME280;40801;41.924;25.562;2022-11-21T11:04:36;98230.00;;;22.79;36.52
54900;BME280;40801;41.924;25.562;2022-11-21T11:09:48;98233.50;;;22.53;36.39
54900;BME280;40801;41.924;25.562;2022-11-21T11:15:16;98231.03;;;22.32;36.58
54900;BME280;40801;41.924;25.562;2022-11-21T11:17:42;98233.53;;;22.19;36.36
54900;BME280;40801;41.924;25.562;2022-11-21T11:22:53;98232.41;;;22.13;37.09
54900;BME280;40801;41.924;25.562;2022-11-21T11:25:18;98224.59;;;22.11;36.71
54900;BME280;40801;41.924;25.562;2022-11-21T11:27:44;98225.78;;;22.10;36.31
54900;BME280;40801;41.924;25.562;2022-11-21T11:30:18;98220.75;;;22.02;35.82
54900;BME280;40801;41.924;25.562;2022-11-21T11:32:44;98219.00;;;21.81;35.60
54900;BME280;40801;41.924;25.562;2022-11-21T11:37:42;98223.03;;;21.73;35.61
54900;BME280;40801;41.924;25.562;2022-11-21T11:40:20;98224.63;;;21.67;35.96
54900;BME280;40801;41.924;25.562;2022-11-21T11:48:31;98242.13;;;21.42;36.38
54900;BME280;40801;41.924;25.562;2022-11-21T11:51:04;98244.13;;;21.34;36.36
54900;BME280;40801;41.924;25.562;2022-11-21T11:53:34;98236.72;;;21.28;36.15
54900;BME280;40801;41.924;25.562;2022-11-21T11:56:16;98234.03;;;21.21;36.05
54900;BME280;40801;41.924;25.562;2022-11-21T11:58:52;98238.41;;;21.11;36.00
54900;BME280;40801;41.924;25.562;2022-11-21T12:01:26;98228.28;;;21.01;36.50
54900;BME280;40801;41.924;25.562;2022-11-21T12:04:12;98244.84;;;20.83;37.05
54900;BME280;40801;41.924;25.562;2022-11-21T12:06:47;98237.41;;;20.84;37.35
54900;BME280;40801;41.924;25.562;2022-11-21T12:09:31;98242.19;;;20.69;37.80
54900;BME280;40801;41.924;25.562;2022-11-21T12:12:13;98247.31;;;20.60;38.38
54900;BME280;40801;41.924;25.562;2022-11-21T12:15:02;98245.78;;;20.48;39.06
54900;BME280;40801;41.924;25.562;2022-11-21T12:23:30;98254.53;;;20.04;41.42
54900;BME280;40801;41.924;25.562;2022-11-21T12:26:06;98264.31;;;19.91;42.20
54900;BME280;40801;41.924;25.562;2022-11-21T12:31:37;98274.13;;;19.49;44.51
54900;BME280;40801;41.924;25.562;2022-11-21T12:37:02;98286.22;;;19.41;44.95
54900;BME280;40801;41.924;25.562;2022-11-21T12:42:55;98292.78;;;18.94;47.89
54900;BME280;40801;41.924;25.562;2022-11-21T12:45:35;98285.28;;;18.73;48.43
54900;BME280;40801;41.924;25.562;2022-11-21T12:57:15;98280.94;;;18.54;51.71
54900;BME280;40801;41.924;25.562;2022-11-21T13:05:40;98285.94;;;18.45;53.84
54900;BME280;40801;41.924;25.562;2022-11-21T13:08:19;98286.72;;;18.45;54.67
54900;BME280;40801;41.924;25.562;2022-11-21T13:14:04;98296.13;;;18.55;53.27
54900;BME280;40801;41.924;25.562;2022-11-21T13:16:35;98299.66;;;18.55;55.18
54900;BME280;40801;41.924;25.562;2022-11-21T13:19:50;98299.66;;;18.52;54.83
54900;BME280;40801;41.924;25.562;2022-11-21T13:25:12;98296.59;;;18.68;53.83
54900;BME280;40801;41.924;25.562;2022-11-21T13:27:48;98298.63;;;18.88;51.92
54900;BME280;40801;41.924;25.562;2022-11-21T13:32:47;98286.19;;;19.19;50.17
54900;BME280;40801;41.924;25.562;2022-11-21T13:45:42;98281.13;;;19.22;47.19
54900;BME280;40801;41.924;25.562;2022-11-21T13:54:31;98288.94;;;19.27;45.27
54900;BME280;40801;41.924;25.562;2022-11-21T14:07:31;98309.94;;;18.11;50.73
54900;BME280;40801;41.924;25.562;2022-11-21T14:10:03;98325.81;;;17.94;50.82
54900;BME280;40801;41.924;25.562;2022-11-21T14:12:31;98332.50;;;17.56;51.18
54900;BME280;40801;41.924;25.562;2022-11-21T14:17:45;98342.25;;;17.61;51.66
54900;BME280;40801;41.924;25.562;2022-11-21T14:20:23;98343.75;;;17.51;51.60
54900;BME280;40801;41.924;25.562;2022-11-21T14:22:55;98350.66;;;17.38;52.06
54900;BME280;40801;41.924;25.562;2022-11-21T14:25:27;98350.16;;;17.29;51.92
54900;BME280;40801;41.924;25.562;2022-11-21T14:27:54;98355.88;;;17.17;52.54
54900;BME280;40801;41.924;25.562;2022-11-21T14:30:27;98349.22;;;17.14;53.15
54900;BME280;40801;41.924;25.562;2022-11-21T14:32:52;98362.03;;;17.10;52.76
54900;BME280;40801;41.924;25.562;2022-11-21T14:35:20;98362.97;;;16.91;53.37
54900;BME280;40801;41.924;25.562;2022-11-21T14:37:46;98368.03;;;16.93;53.02